sensor_id;sensor_type;location;lat;lon;timestamp;temperature;humidity
62912;DHT22;49111;51.028;4.218;2023-05-02T00:01:06;12.50;99.90
62912;DHT22;49111;51.028;4.218;2023-05-02T00:03:40;12.60;99.90
62912;DHT22;49111;51.028;4.218;2023-05-02T00:06:14;12.60;99.90
62912;DHT22;49111;51.028;4.218;2023-05-02T00:12:14;12.90;99.90
62912;DHT22;49111;51.028;4.218;2023-05-02T00:14:46;12.90;99.90
62912;DHT22;49111;51.028;4.218;2023-05-02T00:17:17;12.90;99.90
62912;DHT22;49111;51.028;4.218;2023-05-02T00:19:54;12.90;99.90
62912;DHT22;49111;51.028;4.218;2023-05-02T00:22:32;13.00;99.90
62912;DHT22;49111;51.028;4.218;2023-05-02T00:24:59;13.00;99.90
62912;DHT22;49111;51.028;4.218;2023-05-02T00:34:53;12.90;99.90
62912;DHT22;49111;51.028;4.218;2023-05-02T00:37:35;12.90;99.90
62912;DHT22;49111;51.028;4.218;2023-05-02T00:40:02;12.90;99.90
62912;DHT22;49111;51.028;4.218;2023-05-02T00:45:52;13.00;99.90
62912;DHT22;49111;51.028;4.218;2023-05-02T00:52:12;13.10;99.90
62912;DHT22;49111;51.028;4.218;2023-05-02T00:55:05;13.10;99.90
62912;DHT22;49111;51.028;4.218;2023-05-02T00:57:43;13.10;99.90
62912;DHT22;49111;51.028;4.218;2023-05-02T01:13:28;13.10;99.90
62912;DHT22;49111;51.028;4.218;2023-05-02T01:16:11;13.10;99.90
62912;DHT22;49111;51.028;4.218;2023-05-02T01:18:57;13.20;99.90
62912;DHT22;49111;51.028;4.218;2023-05-02T01:21:32;13.10;99.90
62912;DHT22;49111;51.028;4.218;2023-05-02T01:24:08;13.00;99.90
62912;DHT22;49111;51.028;4.218;2023-05-02T01:30:07;12.90;99.90
62912;DHT22;49111;51.028;4.218;2023-05-02T01:35:50;12.90;99.90
62912;DHT22;49111;51.028;4.218;2023-05-02T01:38:27;12.90;99.90
62912;DHT22;49111;51.028;4.218;2023-05-02T01:40:54;12.90;99.90
62912;DHT22;49111;51.028;4.218;2023-05-02T01:43:58;13.00;99.90
62912;DHT22;49111;51.028;4.218;2023-05-02T01:49:12;12.90;99.90
62912;DHT22;49111;51.028;4.218;2023-05-02T01:51:52;12.90;99.90
62912;DHT22;49111;51.028;4.218;2023-05-02T01:54:20;12.90;99.90
62912;DHT22;49111;51.028;4.218;2023-05-02T01:57:06;12.90;99.90
62912;DHT22;49111;51.028;4.218;2023-05-02T01:59:35;12.90;99.90
62912;DHT22;49111;51.028;4.218;2023-05-02T02:02:29;12.90;99.90
62912;DHT22;49111;51.028;4.218;2023-05-02T02:04:56;12.90;99.90
62912;DHT22;49111;51.028;4.218;2023-05-02T02:07:32;12.90;99.90
62912;DHT22;49111;51.028;4.218;2023-05-02T02:10:07;12.80;99.90
62912;DHT22;49111;51.028;4.218;2023-05-02T02:16:07;12.70;99.90
62912;DHT22;49111;51.028;4.218;2023-05-02T02:18:42;12.80;99.90
62912;DHT22;49111;51.028;4.218;2023-05-02T02:21:27;12.80;99.90
62912;DHT22;49111;51.028;4.218;2023-05-02T02:24:05;12.80;99.90
62912;DHT22;49111;51.028;4.218;2023-05-02T02:26:44;12.80;99.90
62912;DHT22;49111;51.028;4.218;2023-05-02T02:29:17;12.70;99.90
62912;DHT22;49111;51.028;4.218;2023-05-02T02:41:26;12.50;99.90
62912;DHT22;49111;51.028;4.218;2023-05-02T02:47:15;12.30;99.90
62912;DHT22;49111;51.028;4.218;2023-05-02T02:49:46;12.20;99.90
62912;DHT22;49111;51.028;4.218;2023-05-02T03:02:25;12.00;99.90
62912;DHT22;49111;51.028;4.218;2023-05-02T03:05:01;12.00;99.90
62912;DHT22;49111;51.028;4.218;2023-05-02T03:07:35;11.90;99.90
62912;DHT22;49111;51.028;4.218;2023-05-02T03:10:34;11.90;99.90
62912;DHT22;49111;51.028;4.218;2023-05-02T03:13:05;11.80;99.90
62912;DHT22;49111;51.028;4.218;2023-05-02T03:18:18;11.90;99.90
62912;DHT22;49111;51.028;4.218;2023-05-02T03:20:46;11.80;99.90
62912;DHT22;49111;51.028;4.218;2023-05-02T03:23:39;11.80;99.90
62912;DHT22;49111;51.028;4.218;2023-05-02T03:26:24;11.90;99.90
62912;DHT22;49111;51.028;4.218;2023-05-02T03:29:04;12.00;99.90
62912;DHT22;49111;51.028;4.218;2023-05-02T03:31:35;12.00;99.90
62912;DHT22;49111;51.028;4.218;2023-05-02T03:34:02;12.10;99.90
62912;DHT22;49111;51.028;4.218;2023-05-02T03:36:45;12.10;99.90
62912;DHT22;49111;51.028;4.218;2023-05-02T03:42:15;12.20;99.90
62912;DHT22;49111;51.028;4.218;2023-05-02T03:45:08;12.30;99.90
62912;DHT22;49111;51.028;4.218;2023-05-02T03:47:39;12.20;99.90
62912;DHT22;49111;51.028;4.218;2023-05-02T03:50:05;12.20;99.90
62912;DHT22;49111;51.028;4.218;2023-05-02T03:55:39;12.30;99.90
62912;DHT22;49111;51.028;4.218;2023-05-02T03:58:16;12.30;99.90
62912;DHT22;49111;51.028;4.218;2023-05-02T04:00:48;12.30;99.90
62912;DHT22;49111;51.028;4.218;2023-05-02T04:03:23;12.20;99.90
62912;DHT22;49111;51.028;4.218;2023-05-02T04:05:55;12.20;99.90
62912;DHT22;49111;51.028;4.218;2023-05-02T04:14:57;12.10;99.90
62912;DHT22;49111;51.028;4.218;2023-05-02T04:17:35;11.90;99.90
62912;DHT22;49111;51.028;4.218;2023-05-02T04:20:34;11.80;99.90
62912;DHT22;49111;51.028;4.218;2023-05-02T04:23:03;11.80;99.90
62912;DHT22;49111;51.028;4.218;2023-05-02T04:25:30;11.80;99.90
62912;DHT22;49111;51.028;4.218;2023-05-02T04:28:12;11.70;99.90
62912;DHT22;49111;51.028;4.218;2023-05-02T04:30:56;11.70;99.90
62912;DHT22;49111;51.028;4.218;2023-05-02T04:33:37;11.70;99.90
62912;DHT22;49111;51.028;4.218;2023-05-02T04:42:23;11.70;99.90
62912;DHT22;49111;51.028;4.218;2023-05-02T04:45:14;11.70;99.90
62912;DHT22;49111;51.028;4.218;2023-05-02T04:51:13;11.80;99.90
62912;DHT22;49111;51.028;4.218;2023-05-02T04:53:42;11.90;99.90
62912;DHT22;49111;51.028;4.218;2023-05-02T04:56:22;12.00;99.90
62912;DHT22;49111;51.028;4.218;2023-05-02T04:59:25;12.00;99.90
62912;DHT22;49111;51.028;4.218;2023-05-02T05:04:45;12.00;99.90
62912;DHT22;49111;51.028;4.218;2023-05-02T05:10:18;12.00;99.90
62912;DHT22;49111;51.028;4.218;2023-05-02T05:13:07;12.10;99.90
62912;DHT22;49111;51.028;4.218;2023-05-02T05:15:52;12.10;99.90
62912;DHT22;49111;51.028;4.218;2023-05-02T05:18:34;12.20;99.90
62912;DHT22;49111;51.028;4.218;2023-05-02T05:21:18;12.20;99.90
62912;DHT22;49111;51.028;4.218;2023-05-02T05:23:50;12.30;99.90
62912;DHT22;49111;51.028;4.218;2023-05-02T05:26:24;12.20;99.90
62912;DHT22;49111;51.028;4.218;2023-05-02T05:28:52;12.20;99.90
62912;DHT22;49111;51.028;4.218;2023-05-02T05:31:42;12.30;99.90
62912;DHT22;49111;51.028;4.218;2023-05-02T05:34:33;12.40;99.90
62912;DHT22;49111;51.028;4.218;2023-05-02T05:37:07;12.40;99.90
62912;DHT22;49111;51.028;4.218;2023-05-02T05:39:46;12.50;99.90
62912;DHT22;49111;51.028;4.218;2023-05-02T05:42:27;12.50;99.90
62912;DHT22;49111;51.028;4.218;2023-05-02T05:45:11;12.50;99.90
62912;DHT22;49111;51.028;4.218;2023-05-02T05:47:43;12.50;99.90
62912;DHT22;49111;51.028;4.218;2023-05-02T05:50:21;12.30;99.90
62912;DHT22;49111;51.028;4.218;2023-05-02T05:52:55;12.30;99.90
62912;DHT22;49111;51.028;4.218;2023-05-02T05:58:37;12.20;99.90
62912;DHT22;49111;51.028;4.218;2023-05-02T06:01:29;12.00;99.90
62912;DHT22;49111;51.028;4.218;2023-05-02T06:07:11;12.20;99.90
62912;DHT22;49111;51.028;4.218;2023-05-02T06:09:43;12.20;99.90
62912;DHT22;49111;51.028;4.218;2023-05-02T06:12:09;12.20;99.90
62912;DHT22;49111;51.028;4.218;2023-05-02T06:14:41;12.20;99.90
62912;DHT22;49111;51.028;4.218;2023-05-02T06:20:12;12.30;99.90
62912;DHT22;49111;51.028;4.218;2023-05-02T06:25:43;12.40;99.90
62912;DHT22;49111;51.028;4.218;2023-05-02T06:28:31;12.40;99.90
62912;DHT22;49111;51.028;4.218;2023-05-02T06:31:04;12.60;99.90
62912;DHT22;49111;51.028;4.218;2023-05-02T06:37:02;12.80;99.90
62912;DHT22;49111;51.028;4.218;2023-05-02T06:39:36;12.70;99.90
62912;DHT22;49111;51.028;4.218;2023-05-02T06:45:54;13.00;99.90
62912;DHT22;49111;51.028;4.218;2023-05-02T06:48:51;13.00;99.90
62912;DHT22;49111;51.028;4.218;2023-05-02T06:51:24;13.10;99.90
62912;DHT22;49111;51.028;4.218;2023-05-02T06:54:14;13.20;99.90
62912;DHT22;49111;51.028;4.218;2023-05-02T06:56:48;13.30;99.90
62912;DHT22;49111;51.028;4.218;2023-05-02T06:59:15;13.30;99.90
62912;DHT22;49111;51.028;4.218;2023-05-02T07:01:45;13.30;99.90
62912;DHT22;49111;51.028;4.218;2023-05-02T07:04:14;13.20;99.90
62912;DHT22;49111;51.028;4.218;2023-05-02T07:06:57;13.30;99.90
62912;DHT22;49111;51.028;4.218;2023-05-02T07:12:21;13.70;99.90
62912;DHT22;49111;51.028;4.218;2023-05-02T07:14:50;13.90;99.90
62912;DHT22;49111;51.028;4.218;2023-05-02T07:17:27;13.90;99.90
62912;DHT22;49111;51.028;4.218;2023-05-02T07:19:54;13.90;99.90
62912;DHT22;49111;51.028;4.218;2023-05-02T07:25:34;13.90;99.90
62912;DHT22;49111;51.028;4.218;2023-05-02T07:28:15;13.80;99.90
62912;DHT22;49111;51.028;4.218;2023-05-02T07:30:48;13.70;99.90
62912;DHT22;49111;51.028;4.218;2023-05-02T07:35:46;13.50;99.90
62912;DHT22;49111;51.028;4.218;2023-05-02T07:41:13;13.70;99.90
62912;DHT22;49111;51.028;4.218;2023-05-02T07:43:54;13.70;99.90
62912;DHT22;49111;51.028;4.218;2023-05-02T07:46:24;13.90;99.90
62912;DHT22;49111;51.028;4.218;2023-05-02T07:49:09;13.90;99.90
62912;DHT22;49111;51.028;4.218;2023-05-02T07:51:37;14.20;99.90
62912;DHT22;49111;51.028;4.218;2023-05-02T07:54:20;14.40;99.90
62912;DHT22;49111;51.028;4.218;2023-05-02T07:56:48;14.50;99.90
62912;DHT22;49111;51.028;4.218;2023-05-02T07:59:34;14.60;99.90
62912;DHT22;49111;51.028;4.218;2023-05-02T08:02:24;14.50;99.90
62912;DHT22;49111;51.028;4.218;2023-05-02T08:04:55;14.50;99.90
62912;DHT22;49111;51.028;4.218;2023-05-02T08:07:36;14.30;99.90
62912;DHT22;49111;51.028;4.218;2023-05-02T08:10:05;14.40;99.90
62912;DHT22;49111;51.028;4.218;2023-05-02T08:12:43;14.40;99.90
62912;DHT22;49111;51.028;4.218;2023-05-02T08:15:29;14.40;99.90
62912;DHT22;49111;51.028;4.218;2023-05-02T08:21:34;14.50;99.90
62912;DHT22;49111;51.028;4.218;2023-05-02T08:24:02;14.40;99.90
62912;DHT22;49111;51.028;4.218;2023-05-02T08:26:47;14.30;99.90
62912;DHT22;49111;51.028;4.218;2023-05-02T08:29:14;14.30;99.90
62912;DHT22;49111;51.028;4.218;2023-05-02T08:31:49;14.20;99.90
62912;DHT22;49111;51.028;4.218;2023-05-02T08:34:29;14.20;99.90
62912;DHT22;49111;51.028;4.218;2023-05-02T08:37:14;14.10;99.90
62912;DHT22;49111;51.028;4.218;2023-05-02T08:39:42;13.90;99.90
62912;DHT22;49111;51.028;4.218;2023-05-02T08:45:16;14.00;99.90
62912;DHT22;49111;51.028;4.218;2023-05-02T08:47:43;14.10;99.90
62912;DHT22;49111;51.028;4.218;2023-05-02T08:50:12;14.20;99.90
62912;DHT22;49111;51.028;4.218;2023-05-02T08:52:52;14.20;99.90
62912;DHT22;49111;51.028;4.218;2023-05-02T08:55:22;14.20;99.90
62912;DHT22;49111;51.028;4.218;2023-05-02T08:57:57;14.20;99.90
62912;DHT22;49111;51.028;4.218;2023-05-02T09:00:28;14.30;99.90
62912;DHT22;49111;51.028;4.218;2023-05-02T09:03:30;14.40;99.90
62912;DHT22;49111;51.028;4.218;2023-05-02T09:06:17;14.60;99.90
62912;DHT22;49111;51.028;4.218;2023-05-02T09:08:49;14.60;99.90
62912;DHT22;49111;51.028;4.218;2023-05-02T09:11:24;14.60;99.90
62912;DHT22;49111;51.028;4.218;2023-05-02T09:13:50;14.50;99.90
62912;DHT22;49111;51.028;4.218;2023-05-02T09:16:38;14.60;99.90
62912;DHT22;49111;51.028;4.218;2023-05-02T09:19:10;14.50;99.90
62912;DHT22;49111;51.028;4.218;2023-05-02T09:21:49;14.50;99.90
62912;DHT22;49111;51.028;4.218;2023-05-02T09:24:30;14.60;99.90
62912;DHT22;49111;51.028;4.218;2023-05-02T09:27:09;14.60;99.90
62912;DHT22;49111;51.028;4.218;2023-05-02T09:32:55;15.20;99.90
62912;DHT22;49111;51.028;4.218;2023-05-02T09:35:52;15.40;99.70
62912;DHT22;49111;51.028;4.218;2023-05-02T09:38:21;15.50;99.90
62912;DHT22;49111;51.028;4.218;2023-05-02T09:40:53;15.60;99.30
62912;DHT22;49111;51.028;4.218;2023-05-02T09:43:31;15.50;99.60
62912;DHT22;49111;51.028;4.218;2023-05-02T09:46:10;15.40;99.90
62912;DHT22;49111;51.028;4.218;2023-05-02T09:49:10;15.50;99.50
62912;DHT22;49111;51.028;4.218;2023-05-02T09:51:55;15.60;97.90
62912;DHT22;49111;51.028;4.218;2023-05-02T09:54:41;15.70;98.80
62912;DHT22;49111;51.028;4.218;2023-05-02T09:57:43;15.60;99.50
62912;DHT22;49111;51.028;4.218;2023-05-02T10:00:14;15.60;98.70
62912;DHT22;49111;51.028;4.218;2023-05-02T10:03:06;15.80;98.30
62912;DHT22;49111;51.028;4.218;2023-05-02T10:05:38;16.10;98.50
62912;DHT22;49111;51.028;4.218;2023-05-02T10:08:25;16.40;97.20
62912;DHT22;49111;51.028;4.218;2023-05-02T10:10:57;16.60;95.30
62912;DHT22;49111;51.028;4.218;2023-05-02T10:14:00;16.60;96.50
62912;DHT22;49111;51.028;4.218;2023-05-02T10:17:00;16.70;96.20
62912;DHT22;49111;51.028;4.218;2023-05-02T10:22:37;16.80;94.30
62912;DHT22;49111;51.028;4.218;2023-05-02T10:25:05;17.00;94.50
62912;DHT22;49111;51.028;4.218;2023-05-02T10:30:29;17.20;93.40
62912;DHT22;49111;51.028;4.218;2023-05-02T10:33:24;16.80;93.40
62912;DHT22;49111;51.028;4.218;2023-05-02T10:36:11;16.70;94.70
62912;DHT22;49111;51.028;4.218;2023-05-02T10:38:44;17.10;94.70
62912;DHT22;49111;51.028;4.218;2023-05-02T10:41:20;17.30;94.00
62912;DHT22;49111;51.028;4.218;2023-05-02T10:44:04;17.40;92.40
62912;DHT22;49111;51.028;4.218;2023-05-02T10:46:36;17.20;92.70
62912;DHT22;49111;51.028;4.218;2023-05-02T10:49:09;17.10;92.80
62912;DHT22;49111;51.028;4.218;2023-05-02T10:51:38;17.00;93.70
62912;DHT22;49111;51.028;4.218;2023-05-02T10:57:26;17.20;93.90
62912;DHT22;49111;51.028;4.218;2023-05-02T11:04:00;17.10;93.50
62912;DHT22;49111;51.028;4.218;2023-05-02T11:09:29;17.20;92.10
62912;DHT22;49111;51.028;4.218;2023-05-02T11:12:02;17.30;92.40
62912;DHT22;49111;51.028;4.218;2023-05-02T11:20:34;17.50;91.80
62912;DHT22;49111;51.028;4.218;2023-05-02T11:23:21;17.60;91.80
62912;DHT22;49111;51.028;4.218;2023-05-02T11:26:21;17.60;90.00
62912;DHT22;49111;51.028;4.218;2023-05-02T11:28:47;17.50;90.10
62912;DHT22;49111;51.028;4.218;2023-05-02T11:37:19;17.20;90.60
62912;DHT22;49111;51.028;4.218;2023-05-02T11:40:20;17.30;92.20
62912;DHT22;49111;51.028;4.218;2023-05-02T11:42:52;17.40;90.40
62912;DHT22;49111;51.028;4.218;2023-05-02T11:45:35;17.50;90.00
62912;DHT22;49111;51.028;4.218;2023-05-02T11:48:14;17.50;91.30
62912;DHT22;49111;51.028;4.218;2023-05-02T11:50:51;17.50;89.30
62912;DHT22;49111;51.028;4.218;2023-05-02T11:53:24;17.50;89.80
62912;DHT22;49111;51.028;4.218;2023-05-02T11:55:55;17.70;88.40
62912;DHT22;49111;51.028;4.218;2023-05-02T11:58:26;18.00;89.50
62912;DHT22;49111;51.028;4.218;2023-05-02T12:00:57;18.10;88.30
62912;DHT22;49111;51.028;4.218;2023-05-02T12:03:33;18.00;87.20
62912;DHT22;49111;51.028;4.218;2023-05-02T12:06:13;17.90;87.00
62912;DHT22;49111;51.028;4.218;2023-05-02T12:09:15;17.80;90.90
62912;DHT22;49111;51.028;4.218;2023-05-02T12:11:55;17.80;87.00
62912;DHT22;49111;51.028;4.218;2023-05-02T12:14:28;17.90;87.50
62912;DHT22;49111;51.028;4.218;2023-05-02T12:20:06;17.80;85.10
62912;DHT22;49111;51.028;4.218;2023-05-02T12:22:35;17.80;85.50
62912;DHT22;49111;51.028;4.218;2023-05-02T12:25:20;17.70;84.20
62912;DHT22;49111;51.028;4.218;2023-05-02T12:28:12;17.70;86.80
62912;DHT22;49111;51.028;4.218;2023-05-02T12:30:47;17.70;86.40
62912;DHT22;49111;51.028;4.218;2023-05-02T12:33:15;17.80;84.90
62912;DHT22;49111;51.028;4.218;2023-05-02T12:35:50;17.90;83.70
62912;DHT22;49111;51.028;4.218;2023-05-02T12:38:19;18.00;88.60
62912;DHT22;49111;51.028;4.218;2023-05-02T12:41:01;17.90;81.70
62912;DHT22;49111;51.028;4.218;2023-05-02T12:43:48;17.90;84.30
62912;DHT22;49111;51.028;4.218;2023-05-02T12:46:14;18.00;86.10
62912;DHT22;49111;51.028;4.218;2023-05-02T12:49:12;18.00;84.20
62912;DHT22;49111;51.028;4.218;2023-05-02T12:51:51;18.00;83.80
62912;DHT22;49111;51.028;4.218;2023-05-02T12:54:20;18.10;82.50
62912;DHT22;49111;51.028;4.218;2023-05-02T12:56:50;18.20;84.60
62912;DHT22;49111;51.028;4.218;2023-05-02T12:59:29;18.30;82.50
62912;DHT22;49111;51.028;4.218;2023-05-02T13:01:58;18.20;82.40
62912;DHT22;49111;51.028;4.218;2023-05-02T13:04:47;18.20;83.70
62912;DHT22;49111;51.028;4.218;2023-05-02T13:07:12;18.20;82.20
62912;DHT22;49111;51.028;4.218;2023-05-02T13:09:48;18.20;80.30
62912;DHT22;49111;51.028;4.218;2023-05-02T13:12:21;18.00;83.00
62912;DHT22;49111;51.028;4.218;2023-05-02T13:14:49;18.00;81.80
62912;DHT22;49111;51.028;4.218;2023-05-02T13:17:49;17.90;80.20
62912;DHT22;49111;51.028;4.218;2023-05-02T13:20:22;17.90;81.00
62912;DHT22;49111;51.028;4.218;2023-05-02T13:22:48;17.70;80.50
62912;DHT22;49111;51.028;4.218;2023-05-02T13:25:15;17.70;79.70
62912;DHT22;49111;51.028;4.218;2023-05-02T13:27:51;17.70;79.00
62912;DHT22;49111;51.028;4.218;2023-05-02T13:30:17;17.80;80.00
62912;DHT22;49111;51.028;4.218;2023-05-02T13:32:47;17.90;79.70
62912;DHT22;49111;51.028;4.218;2023-05-02T13:35:43;18.00;80.40
62912;DHT22;49111;51.028;4.218;2023-05-02T13:38:26;18.00;78.70
62912;DHT22;49111;51.028;4.218;2023-05-02T13:41:11;18.00;79.50
62912;DHT22;49111;51.028;4.218;2023-05-02T13:43:38;18.00;79.40
62912;DHT22;49111;51.028;4.218;2023-05-02T13:46:17;17.90;75.90
62912;DHT22;49111;51.028;4.218;2023-05-02T13:48:48;17.80;75.70
62912;DHT22;49111;51.028;4.218;2023-05-02T13:51:14;17.90;75.60
62912;DHT22;49111;51.028;4.218;2023-05-02T13:53:41;18.00;75.80
62912;DHT22;49111;51.028;4.218;2023-05-02T13:56:23;17.80;76.60
62912;DHT22;49111;51.028;4.218;2023-05-02T13:58:54;17.90;78.20
62912;DHT22;49111;51.028;4.218;2023-05-02T14:01:21;18.00;80.80
62912;DHT22;49111;51.028;4.218;2023-05-02T14:06:38;18.40;74.20
62912;DHT22;49111;51.028;4.218;2023-05-02T14:09:37;18.40;73.50
62912;DHT22;49111;51.028;4.218;2023-05-02T14:12:17;18.40;76.50
62912;DHT22;49111;51.028;4.218;2023-05-02T14:14:43;18.50;74.30
62912;DHT22;49111;51.028;4.218;2023-05-02T14:17:13;18.40;71.20
62912;DHT22;49111;51.028;4.218;2023-05-02T14:19:40;18.40;72.80
62912;DHT22;49111;51.028;4.218;2023-05-02T14:22:07;18.30;70.10
62912;DHT22;49111;51.028;4.218;2023-05-02T14:24:33;18.20;72.50
62912;DHT22;49111;51.028;4.218;2023-05-02T14:26:58;18.20;71.60
62912;DHT22;49111;51.028;4.218;2023-05-02T14:29:25;18.30;72.90
62912;DHT22;49111;51.028;4.218;2023-05-02T14:31:51;18.40;72.40
62912;DHT22;49111;51.028;4.218;2023-05-02T14:34:18;18.40;72.80
62912;DHT22;49111;51.028;4.218;2023-05-02T14:36:46;18.40;72.00
62912;DHT22;49111;51.028;4.218;2023-05-02T14:39:13;18.50;72.10
62912;DHT22;49111;51.028;4.218;2023-05-02T14:41:38;18.60;72.70
62912;DHT22;49111;51.028;4.218;2023-05-02T14:44:04;18.70;70.80
62912;DHT22;49111;51.028;4.218;2023-05-02T14:46:31;18.60;70.10
62912;DHT22;49111;51.028;4.218;2023-05-02T14:49:01;18.70;73.80
62912;DHT22;49111;51.028;4.218;2023-05-02T14:51:27;18.60;73.60
62912;DHT22;49111;51.028;4.218;2023-05-02T14:53:54;18.70;72.30
62912;DHT22;49111;51.028;4.218;2023-05-02T14:56:20;18.80;69.60
62912;DHT22;49111;51.028;4.218;2023-05-02T14:58:46;18.80;74.50
62912;DHT22;49111;51.028;4.218;2023-05-02T15:01:24;18.80;72.60
62912;DHT22;49111;51.028;4.218;2023-05-02T15:03:50;18.80;69.30
62912;DHT22;49111;51.028;4.218;2023-05-02T15:06:17;18.80;70.00
62912;DHT22;49111;51.028;4.218;2023-05-02T15:08:47;18.90;68.20
62912;DHT22;49111;51.028;4.218;2023-05-02T15:11:12;18.80;70.90
62912;DHT22;49111;51.028;4.218;2023-05-02T15:13:41;18.80;68.10
62912;DHT22;49111;51.028;4.218;2023-05-02T15:16:08;18.70;68.20
62912;DHT22;49111;51.028;4.218;2023-05-02T15:18:35;18.80;69.30
62912;DHT22;49111;51.028;4.218;2023-05-02T15:21:01;19.00;71.00
62912;DHT22;49111;51.028;4.218;2023-05-02T15:23:27;19.00;68.30
62912;DHT22;49111;51.028;4.218;2023-05-02T15:25:52;19.00;68.20
62912;DHT22;49111;51.028;4.218;2023-05-02T15:28:18;18.90;67.90
62912;DHT22;49111;51.028;4.218;2023-05-02T15:30:44;19.00;67.10
62912;DHT22;49111;51.028;4.218;2023-05-02T15:33:12;19.00;69.80
62912;DHT22;49111;51.028;4.218;2023-05-02T15:35:38;18.90;71.10
62912;DHT22;49111;51.028;4.218;2023-05-02T15:38:04;19.00;69.20
62912;DHT22;49111;51.028;4.218;2023-05-02T15:40:31;18.90;68.50
62912;DHT22;49111;51.028;4.218;2023-05-02T15:42:56;18.90;69.50
62912;DHT22;49111;51.028;4.218;2023-05-02T15:45:22;19.00;67.60
62912;DHT22;49111;51.028;4.218;2023-05-02T15:47:48;19.10;69.90
62912;DHT22;49111;51.028;4.218;2023-05-02T15:50:15;19.10;69.10
62912;DHT22;49111;51.028;4.218;2023-05-02T15:52:42;19.00;69.30
62912;DHT22;49111;51.028;4.218;2023-05-02T15:55:08;18.90;71.30
62912;DHT22;49111;51.028;4.218;2023-05-02T15:57:33;18.80;70.20
62912;DHT22;49111;51.028;4.218;2023-05-02T15:59:59;18.70;70.80
62912;DHT22;49111;51.028;4.218;2023-05-02T16:02:25;18.80;69.50
62912;DHT22;49111;51.028;4.218;2023-05-02T16:04:51;18.70;71.00
62912;DHT22;49111;51.028;4.218;2023-05-02T16:07:17;18.70;71.30
62912;DHT22;49111;51.028;4.218;2023-05-02T16:09:42;18.80;71.60
62912;DHT22;49111;51.028;4.218;2023-05-02T16:12:08;18.80;73.50
62912;DHT22;49111;51.028;4.218;2023-05-02T16:14:34;18.70;73.80
62912;DHT22;49111;51.028;4.218;2023-05-02T16:17:00;18.80;72.50
62912;DHT22;49111;51.028;4.218;2023-05-02T16:19:27;18.70;72.10
62912;DHT22;49111;51.028;4.218;2023-05-02T16:21:53;18.80;72.60
62912;DHT22;49111;51.028;4.218;2023-05-02T16:24:19;18.90;72.70
62912;DHT22;49111;51.028;4.218;2023-05-02T16:26:45;18.90;72.40
62912;DHT22;49111;51.028;4.218;2023-05-02T16:29:12;18.80;73.80
62912;DHT22;49111;51.028;4.218;2023-05-02T16:31:39;18.70;72.20
62912;DHT22;49111;51.028;4.218;2023-05-02T16:34:07;18.50;72.10
62912;DHT22;49111;51.028;4.218;2023-05-02T16:36:34;18.30;73.70
62912;DHT22;49111;51.028;4.218;2023-05-02T16:39:00;18.20;73.90
62912;DHT22;49111;51.028;4.218;2023-05-02T16:41:26;18.00;74.60
62912;DHT22;49111;51.028;4.218;2023-05-02T16:43:53;17.90;73.90
62912;DHT22;49111;51.028;4.218;2023-05-02T16:46:19;17.90;74.60
62912;DHT22;49111;51.028;4.218;2023-05-02T16:48:47;17.80;75.60
62912;DHT22;49111;51.028;4.218;2023-05-02T16:51:16;17.90;75.40
62912;DHT22;49111;51.028;4.218;2023-05-02T16:53:42;17.80;75.60
62912;DHT22;49111;51.028;4.218;2023-05-02T16:56:09;17.90;75.90
62912;DHT22;49111;51.028;4.218;2023-05-02T16:58:37;18.00;74.80
62912;DHT22;49111;51.028;4.218;2023-05-02T17:01:02;18.00;75.40
62912;DHT22;49111;51.028;4.218;2023-05-02T17:03:42;18.10;74.00
62912;DHT22;49111;51.028;4.218;2023-05-02T17:06:09;18.00;74.00
62912;DHT22;49111;51.028;4.218;2023-05-02T17:08:35;17.90;75.30
62912;DHT22;49111;51.028;4.218;2023-05-02T17:11:01;17.90;76.40
62912;DHT22;49111;51.028;4.218;2023-05-02T17:13:37;17.80;74.50
62912;DHT22;49111;51.028;4.218;2023-05-02T17:16:12;17.40;75.00
62912;DHT22;49111;51.028;4.218;2023-05-02T17:18:38;17.30;75.60
62912;DHT22;49111;51.028;4.218;2023-05-02T17:21:06;17.30;75.10
62912;DHT22;49111;51.028;4.218;2023-05-02T17:23:38;17.40;77.60
62912;DHT22;49111;51.028;4.218;2023-05-02T17:26:18;17.60;75.40
62912;DHT22;49111;51.028;4.218;2023-05-02T17:29:15;17.50;74.60
62912;DHT22;49111;51.028;4.218;2023-05-02T17:31:42;17.40;75.90
62912;DHT22;49111;51.028;4.218;2023-05-02T17:34:11;17.40;75.60
62912;DHT22;49111;51.028;4.218;2023-05-02T17:36:56;17.20;74.90
62912;DHT22;49111;51.028;4.218;2023-05-02T17:39:54;17.10;75.80
62912;DHT22;49111;51.028;4.218;2023-05-02T17:42:20;17.10;75.80
62912;DHT22;49111;51.028;4.218;2023-05-02T17:44:53;17.20;75.70
62912;DHT22;49111;51.028;4.218;2023-05-02T17:47:18;17.10;75.60
62912;DHT22;49111;51.028;4.218;2023-05-02T17:49:44;17.20;75.20
62912;DHT22;49111;51.028;4.218;2023-05-02T17:52:20;17.20;75.50
62912;DHT22;49111;51.028;4.218;2023-05-02T17:57:35;17.10;76.50
62912;DHT22;49111;51.028;4.218;2023-05-02T18:03:26;16.90;75.80
62912;DHT22;49111;51.028;4.218;2023-05-02T18:06:00;16.80;76.70
62912;DHT22;49111;51.028;4.218;2023-05-02T18:08:25;16.30;77.20
62912;DHT22;49111;51.028;4.218;2023-05-02T18:10:52;16.10;78.00
62912;DHT22;49111;51.028;4.218;2023-05-02T18:13:23;16.00;77.70
62912;DHT22;49111;51.028;4.218;2023-05-02T18:16:12;15.70;79.60
62912;DHT22;49111;51.028;4.218;2023-05-02T18:18:40;15.70;79.30
62912;DHT22;49111;51.028;4.218;2023-05-02T18:21:22;15.60;79.50
62912;DHT22;49111;51.028;4.218;2023-05-02T18:23:55;15.60;79.60
62912;DHT22;49111;51.028;4.218;2023-05-02T18:26:43;15.50;79.80
62912;DHT22;49111;51.028;4.218;2023-05-02T18:29:09;15.40;80.20
62912;DHT22;49111;51.028;4.218;2023-05-02T18:31:53;15.30;81.00
62912;DHT22;49111;51.028;4.218;2023-05-02T18:34:31;15.00;81.30
62912;DHT22;49111;51.028;4.218;2023-05-02T18:37:05;14.90;81.60
62912;DHT22;49111;51.028;4.218;2023-05-02T18:39:47;14.70;81.20
62912;DHT22;49111;51.028;4.218;2023-05-02T18:42:13;14.60;81.10
62912;DHT22;49111;51.028;4.218;2023-05-02T18:45:06;14.40;81.50
62912;DHT22;49111;51.028;4.218;2023-05-02T18:47:35;14.30;82.20
62912;DHT22;49111;51.028;4.218;2023-05-02T18:50:08;14.20;81.80
62912;DHT22;49111;51.028;4.218;2023-05-02T18:53:02;14.10;82.20
62912;DHT22;49111;51.028;4.218;2023-05-02T18:55:32;14.00;83.20
62912;DHT22;49111;51.028;4.218;2023-05-02T18:58:04;13.90;84.10
62912;DHT22;49111;51.028;4.218;2023-05-02T19:00:49;13.90;84.10
62912;DHT22;49111;51.028;4.218;2023-05-02T19:03:31;13.90;83.80
62912;DHT22;49111;51.028;4.218;2023-05-02T19:06:01;13.90;84.00
62912;DHT22;49111;51.028;4.218;2023-05-02T19:08:33;13.80;84.40
62912;DHT22;49111;51.028;4.218;2023-05-02T19:11:04;13.70;84.10
62912;DHT22;49111;51.028;4.218;2023-05-02T19:13:41;13.60;84.20
62912;DHT22;49111;51.028;4.218;2023-05-02T19:16:31;13.60;84.50